Terminal Aerodrome Forecast
Issued by NWS

Home | Current Version | Previous Version | Graphics & Text | Print | Product List | Glossary Off
Versions: 1 2 3 4 5 6 7 8 9 10 11 12 13 14 15 16 17

090
FTUS43 KICT 291358 AAC
TAFRSL
TAF AMD
KRSL 291358Z 2914/3012 04013G22KT 4SM -SHRA SCT008 OVC015
      TEMPO 2914/2918 3SM SHRA BKN008 OVC012
     FM291800 04014G21KT 3SM -SHRA VCTS OVC012CB
     FM292100 06014G21KT 5SM -TSRA OVC010CB
     FM300200 03014G20KT 5SM -TSRA BR OVC006CB
     FM300900 31015KT 6SM -TSRA BKN008 OVC025CB=

USA.gov is the U.S. government's official web portal to all federal, state and local government web resources and services.